createdAt,value
2017-05-11T00:00:18.048Z,929.05
2017-05-11T00:00:46.288Z,929.01
2017-05-11T00:01:14.747Z,929
2017-05-11T00:01:43.150Z,928.99
2017-05-11T00:02:11.371Z,928.99
2017-05-11T00:02:39.634Z,928.97
2017-05-11T00:03:50.928Z,928.99
2017-05-11T00:04:19.321Z,928.97
2017-05-11T00:04:47.491Z,929.02
2017-05-11T00:05:15.631Z,929
2017-05-11T00:05:43.899Z,928.99
2017-05-11T00:06:12.188Z,928.99
2017-05-11T00:06:40.427Z,928.99
2017-05-11T00:07:08.883Z,929
2017-05-11T00:07:37.191Z,929.01
2017-05-11T00:08:05.511Z,929
2017-05-11T00:08:33.868Z,929.03
2017-05-11T00:09:45.156Z,929.03
2017-05-11T00:10:13.460Z,929.02
2017-05-11T00:10:41.817Z,929.03
2017-05-11T00:11:10.056Z,928.99
2017-05-11T00:11:38.328Z,929
2017-05-11T00:12:06.613Z,929
2017-05-11T00:12:34.950Z,929.02
2017-05-11T00:13:03.315Z,928.99
2017-05-11T00:13:31.631Z,929.02
2017-05-11T00:13:59.675Z,929.02
2017-05-11T00:14:27.845Z,929.06
2017-05-11T00:15:39.140Z,929.03
2017-05-11T00:16:07.448Z,929.05
2017-05-11T00:16:35.621Z,929.09
2017-05-11T00:17:03.862Z,929.11
2017-05-11T00:17:32.231Z,929.09
2017-05-11T00:18:00.519Z,929.08
2017-05-11T00:18:28.667Z,929.04
2017-05-11T00:18:57.126Z,929.04
2017-05-11T00:19:25.436Z,929.05
2017-05-11T00:19:53.756Z,929.05
2017-05-11T00:20:22.019Z,929.04
2017-05-11T00:21:33.405Z,929.07
2017-05-11T00:22:01.796Z,929.05
2017-05-11T00:22:29.967Z,929.05
2017-05-11T00:22:58.204Z,929.07
2017-05-11T00:23:26.384Z,929.07
2017-05-11T00:23:54.766Z,929.09
2017-05-11T00:24:23.100Z,929.07
2017-05-11T00:24:51.468Z,929.11
2017-05-11T00:25:19.872Z,929.1
2017-05-11T00:25:48.098Z,929.14
2017-05-11T00:26:16.454Z,929.1
2017-05-11T00:27:27.932Z,929.12
2017-05-11T00:27:56.335Z,929.1
2017-05-11T00:28:24.601Z,929.09
2017-05-11T00:28:52.746Z,929.13
2017-05-11T00:29:21.111Z,929.17
2017-05-11T00:29:49.407Z,929.11
2017-05-11T00:30:17.648Z,929.1
2017-05-11T00:30:46.113Z,929.1
2017-05-11T00:31:14.517Z,929.11
2017-05-11T00:31:42.848Z,929.11
2017-05-11T00:32:11.121Z,929.13
2017-05-11T00:33:22.515Z,929.07
2017-05-11T00:33:50.827Z,929.11
2017-05-11T00:34:19.094Z,929.08
2017-05-11T00:34:47.334Z,929.1
2017-05-11T00:35:15.516Z,929.07
2017-05-11T00:35:43.807Z,929.07
2017-05-11T00:36:12.145Z,929.09
2017-05-11T00:36:40.510Z,929.09
2017-05-11T00:37:08.917Z,929.08
2017-05-11T00:37:37.143Z,929.08
2017-05-11T00:38:05.418Z,929.07
2017-05-11T00:39:16.813Z,929.1
2017-05-11T00:39:45.114Z,929.12
2017-05-11T00:40:13.474Z,929.1
2017-05-11T00:40:41.812Z,929.11
2017-05-11T00:41:09.999Z,929.08
2017-05-11T00:41:38.298Z,929.12
2017-05-11T00:42:06.577Z,929.09
2017-05-11T00:42:34.951Z,929.12
2017-05-11T00:43:03.266Z,929.13
2017-05-11T00:43:31.500Z,929.13
2017-05-11T00:43:59.761Z,929.14
2017-05-11T00:45:11.064Z,929.11
2017-05-11T00:45:39.374Z,929.14
2017-05-11T00:46:07.727Z,929.12
2017-05-11T00:46:35.967Z,929.14
2017-05-11T00:47:04.240Z,929.17
2017-05-11T00:47:32.626Z,929.15
2017-05-11T00:48:00.684Z,929.16
2017-05-11T00:48:29.053Z,929.13
2017-05-11T00:48:57.280Z,929.14
2017-05-11T00:49:25.414Z,929.12
2017-05-11T00:49:53.594Z,929.12
2017-05-11T00:51:05.069Z,929.11
2017-05-11T00:51:33.376Z,929.11
2017-05-11T00:52:01.457Z,929.14
2017-05-11T00:52:29.701Z,929.12
2017-05-11T00:52:58.068Z,929.13
2017-05-11T00:53:26.374Z,929.09
2017-05-11T00:53:54.712Z,929.11
2017-05-11T00:54:23.078Z,929.14
2017-05-11T00:54:51.482Z,929.13
2017-05-11T00:55:19.813Z,929.11
2017-05-11T00:55:48.178Z,929.12
2017-05-11T00:56:59.566Z,929.09
2017-05-11T00:57:27.874Z,929.08
2017-05-11T00:57:56.146Z,929.06
2017-05-11T00:58:24.481Z,929.07
2017-05-11T00:58:52.850Z,929.08
2017-05-11T00:59:21.141Z,929.11
2017-05-11T00:59:49.383Z,929.06
2017-05-11T01:00:17.758Z,929.11
2017-05-11T01:00:46.159Z,929.07
2017-05-11T01:01:14.391Z,929.14
2017-05-11T01:01:42.650Z,929.09
2017-05-11T01:02:54.133Z,929.06
2017-05-11T01:03:22.357Z,929.13
2017-05-11T01:03:50.622Z,929.11
2017-05-11T01:04:18.773Z,929.1
2017-05-11T01:04:47.137Z,929.06
2017-05-11T01:05:15.438Z,929.08
2017-05-11T01:05:43.684Z,929.08
2017-05-11T01:06:12.141Z,929.05
2017-05-11T01:06:40.546Z,929.1
2017-05-11T01:07:08.875Z,929.07
2017-05-11T01:07:37.060Z,929.07
2017-05-11T01:08:48.543Z,929.13
2017-05-11T01:09:16.942Z,929.08
2017-05-11T01:09:45.205Z,929.08
2017-05-11T01:10:13.546Z,929.12
2017-05-11T01:10:41.821Z,929.1
2017-05-11T01:11:10.211Z,929.12
2017-05-11T01:11:38.543Z,929.06
2017-05-11T01:12:07.204Z,929.07
2017-05-11T01:12:35.610Z,929.07
2017-05-11T01:13:03.840Z,929.06
2017-05-11T01:13:32.111Z,929.04
2017-05-11T01:14:43.591Z,929.03
2017-05-11T01:15:11.991Z,929.09
2017-05-11T01:15:40.357Z,929.05
2017-05-11T01:16:08.592Z,929.05
2017-05-11T01:16:36.874Z,929.09
2017-05-11T01:17:05.159Z,929.08
2017-05-11T01:17:33.406Z,929.09
2017-05-11T01:18:01.873Z,929.07
2017-05-11T01:18:30.274Z,929.09
2017-05-11T01:18:58.596Z,929.08
2017-05-11T01:19:26.958Z,929.06
2017-05-11T01:20:38.344Z,929.03
2017-05-11T01:21:06.651Z,929.04
2017-05-11T01:21:34.917Z,929.05
2017-05-11T01:22:03.162Z,929.02
2017-05-11T01:22:31.531Z,929.11
2017-05-11T01:22:59.920Z,929.09
2017-05-11T01:23:28.068Z,929.1
2017-05-11T01:23:56.438Z,929.07
2017-05-11T01:24:24.844Z,929.04
2017-05-11T01:24:53.168Z,929.04
2017-05-11T01:25:21.521Z,929.05
2017-05-11T01:26:33.001Z,929.02
2017-05-11T01:27:01.403Z,928.99
2017-05-11T01:27:29.575Z,929.11
2017-05-11T01:27:57.815Z,929.06
2017-05-11T01:28:26.184Z,929.02
2017-05-11T01:28:54.566Z,929.05
2017-05-11T01:29:22.904Z,929.08
2017-05-11T01:29:51.368Z,929.08
2017-05-11T01:30:19.674Z,929.04
2017-05-11T01:30:48.000Z,929.04
2017-05-11T01:31:16.268Z,929.07
2017-05-11T01:32:27.655Z,929.05
2017-05-11T01:32:56.052Z,929.03
2017-05-11T01:33:24.319Z,929.08
2017-05-11T01:33:52.560Z,929.06
2017-05-11T01:34:20.928Z,929.09
2017-05-11T01:34:49.317Z,929.07
2017-05-11T01:35:17.657Z,929.08
2017-05-11T01:35:46.116Z,929.06
2017-05-11T01:36:14.524Z,929.07
2017-05-11T01:36:42.845Z,929.03
2017-05-11T01:37:11.210Z,929.08
2017-05-11T01:38:22.608Z,929.05
2017-05-11T01:38:51.007Z,929.09
2017-05-11T01:39:19.279Z,929.07
2017-05-11T01:39:47.616Z,929.06
2017-05-11T01:40:15.982Z,929.09
2017-05-11T01:40:44.376Z,929.06
2017-05-11T01:41:12.721Z,929.08
2017-05-11T01:41:41.183Z,929.1
2017-05-11T01:42:09.589Z,929.11
2017-05-11T01:42:37.912Z,929.1
2017-05-11T01:43:06.180Z,929.09
2017-05-11T01:44:17.662Z,929.08
2017-05-11T01:44:46.063Z,929.11
2017-05-11T01:45:14.327Z,929.07
2017-05-11T01:45:42.567Z,929.08
2017-05-11T01:46:10.940Z,929.05
2017-05-11T01:46:39.325Z,929.06
2017-05-11T01:47:07.661Z,929.07
2017-05-11T01:47:36.121Z,929.06
2017-05-11T01:48:04.526Z,929.06
2017-05-11T01:48:32.755Z,929.09
2017-05-11T01:49:01.114Z,929.01
2017-05-11T01:50:12.595Z,929.03
2017-05-11T01:50:40.897Z,929.03
2017-05-11T01:51:09.160Z,929.06
2017-05-11T01:51:37.401Z,929.07
2017-05-11T01:52:05.582Z,929.03
2017-05-11T01:52:33.972Z,929.02
2017-05-11T01:53:02.312Z,929.08
2017-05-11T01:53:30.775Z,929.04
2017-05-11T01:53:59.085Z,929.05
2017-05-11T01:54:27.414Z,929.05
2017-05-11T01:54:55.681Z,929.02
2017-05-11T01:56:07.071Z,929.08
2017-05-11T01:56:35.464Z,929.03
2017-05-11T01:57:03.819Z,929.04
2017-05-11T01:57:32.159Z,929.04
2017-05-11T01:58:00.434Z,929.04
2017-05-11T01:58:28.819Z,929.02
2017-05-11T01:58:57.062Z,929.05
2017-05-11T01:59:25.518Z,929.04
2017-05-11T01:59:53.828Z,929.04
2017-05-11T02:00:22.155Z,928.96
2017-05-11T02:00:50.322Z,929.02
2017-05-11T02:02:01.803Z,929
2017-05-11T02:02:30.199Z,929.02
2017-05-11T02:02:58.552Z,929.04
2017-05-11T02:03:26.794Z,929.01
2017-05-11T02:03:55.165Z,928.99
2017-05-11T02:04:23.553Z,928.99
2017-05-11T02:04:51.699Z,928.96
2017-05-11T02:05:20.164Z,928.99
2017-05-11T02:05:48.563Z,928.97
2017-05-11T02:06:16.792Z,928.91
2017-05-11T02:06:45.060Z,928.94
2017-05-11T02:07:56.545Z,928.91
2017-05-11T02:08:24.938Z,928.92
2017-05-11T02:08:53.303Z,928.92
2017-05-11T02:09:21.548Z,928.95
2017-05-11T02:09:49.917Z,928.95
2017-05-11T02:10:18.217Z,928.96
2017-05-11T02:10:46.457Z,928.89
2017-05-11T02:11:14.919Z,928.88
2017-05-11T02:11:43.325Z,928.97
2017-05-11T02:12:11.652Z,928.93
2017-05-11T02:12:40.009Z,928.94
2017-05-11T02:13:51.486Z,928.95
2017-05-11T02:14:19.877Z,928.9
2017-05-11T02:14:48.142Z,928.93
2017-05-11T02:15:16.397Z,928.88
2017-05-11T02:15:44.671Z,928.89
2017-05-11T02:16:13.058Z,928.94
2017-05-11T02:16:41.208Z,928.88
2017-05-11T02:17:09.574Z,928.89
2017-05-11T02:17:37.885Z,928.94
2017-05-11T02:18:06.207Z,928.89
2017-05-11T02:18:34.471Z,928.93
2017-05-11T02:19:45.860Z,928.89
2017-05-11T02:20:14.260Z,928.91
2017-05-11T02:20:42.429Z,928.86
2017-05-11T02:21:10.669Z,928.88
2017-05-11T02:21:39.036Z,928.85
2017-05-11T02:22:07.426Z,928.89
2017-05-11T02:22:35.764Z,928.88
2017-05-11T02:23:04.227Z,928.88
2017-05-11T02:23:32.545Z,928.89
2017-05-11T02:24:00.864Z,928.86
2017-05-11T02:24:29.136Z,928.88
2017-05-11T02:25:40.616Z,928.89
2017-05-11T02:26:08.920Z,928.9
2017-05-11T02:26:37.274Z,928.87
2017-05-11T02:27:05.618Z,928.85
2017-05-11T02:27:33.985Z,928.9
2017-05-11T02:28:02.375Z,928.87
2017-05-11T02:28:30.620Z,928.88
2017-05-11T02:28:59.080Z,928.89
2017-05-11T02:29:27.484Z,928.87
2017-05-11T02:29:55.807Z,928.86
2017-05-11T02:30:24.073Z,928.9
2017-05-11T02:31:35.560Z,928.89
2017-05-11T02:32:03.960Z,928.93
2017-05-11T02:32:32.225Z,928.89
2017-05-11T02:33:00.457Z,928.9
2017-05-11T02:33:28.828Z,928.89
2017-05-11T02:33:57.211Z,928.93
2017-05-11T02:34:25.454Z,928.87
2017-05-11T02:34:53.822Z,928.85
2017-05-11T02:35:22.231Z,928.85
2017-05-11T02:35:50.553Z,928.86
2017-05-11T02:36:18.827Z,928.84
2017-05-11T02:37:30.214Z,928.88
2017-05-11T02:37:58.518Z,928.84
2017-05-11T02:38:26.700Z,928.86
2017-05-11T02:38:54.940Z,928.84
2017-05-11T02:39:23.125Z,928.89
2017-05-11T02:39:51.413Z,928.91
2017-05-11T02:40:19.751Z,928.86
2017-05-11T02:40:48.208Z,928.89
2017-05-11T02:41:16.615Z,928.85
2017-05-11T02:41:44.746Z,928.82
2017-05-11T02:42:13.003Z,928.83
2017-05-11T02:43:24.482Z,928.84
2017-05-11T02:43:52.879Z,928.85
2017-05-11T02:44:21.242Z,928.86
2017-05-11T02:44:49.574Z,928.87
2017-05-11T02:45:17.942Z,928.89
2017-05-11T02:45:46.331Z,928.9
2017-05-11T02:46:14.664Z,928.91
2017-05-11T02:46:43.128Z,928.91
2017-05-11T02:47:11.532Z,928.86
2017-05-11T02:47:39.861Z,928.9
2017-05-11T02:48:08.218Z,928.89
2017-05-11T02:49:19.697Z,928.89
2017-05-11T02:49:48.006Z,928.89
2017-05-11T02:50:16.087Z,928.88
2017-05-11T02:50:44.421Z,928.9
2017-05-11T02:51:12.702Z,928.9
2017-05-11T02:51:40.998Z,928.89
2017-05-11T02:52:09.332Z,928.9
2017-05-11T02:52:37.793Z,928.85
2017-05-11T02:53:06.197Z,928.87
2017-05-11T02:53:34.521Z,928.85
2017-05-11T02:54:02.885Z,928.85
2017-05-11T02:55:14.270Z,928.84
2017-05-11T02:55:42.669Z,928.81
2017-05-11T02:56:10.940Z,928.82
2017-05-11T02:56:39.278Z,928.81
2017-05-11T02:57:07.553Z,928.82
2017-05-11T02:57:35.940Z,928.83
2017-05-11T02:58:04.276Z,928.8
2017-05-11T02:58:32.734Z,928.78
2017-05-11T02:59:01.145Z,928.8
2017-05-11T02:59:29.374Z,928.78
2017-05-11T02:59:57.733Z,928.71
2017-05-11T03:01:09.212Z,928.74
2017-05-11T03:01:37.604Z,928.7
2017-05-11T03:02:05.698Z,928.69
2017-05-11T03:02:34.018Z,928.69
2017-05-11T03:03:02.383Z,928.68
2017-05-11T03:03:30.679Z,928.68
2017-05-11T03:03:59.018Z,928.69
2017-05-11T03:04:27.482Z,928.69
2017-05-11T03:04:55.796Z,928.66
2017-05-11T03:05:23.947Z,928.67
2017-05-11T03:05:52.310Z,928.69
2017-05-11T03:07:03.695Z,928.67
2017-05-11T03:07:32.016Z,928.66
2017-05-11T03:08:00.288Z,928.72
2017-05-11T03:08:28.540Z,928.67
2017-05-11T03:08:56.909Z,928.65
2017-05-11T03:09:25.297Z,928.66
2017-05-11T03:09:53.632Z,928.66
2017-05-11T03:10:22.094Z,928.64
2017-05-11T03:10:50.405Z,928.63
2017-05-11T03:11:18.727Z,928.63
2017-05-11T03:11:46.993Z,928.64
2017-05-11T03:12:58.386Z,928.65
2017-05-11T03:13:26.691Z,928.68
2017-05-11T03:13:55.051Z,928.62
2017-05-11T03:14:23.294Z,928.63
2017-05-11T03:14:51.566Z,928.61
2017-05-11T03:15:19.953Z,928.64
2017-05-11T03:15:48.194Z,928.64
2017-05-11T03:16:16.655Z,928.62
2017-05-11T03:16:45.056Z,928.67
2017-05-11T03:17:13.376Z,928.65
2017-05-11T03:17:41.642Z,928.67
2017-05-11T03:18:53.122Z,928.65
2017-05-11T03:19:21.434Z,928.64
2017-05-11T03:19:49.704Z,928.65
2017-05-11T03:20:18.041Z,928.63
2017-05-11T03:20:46.316Z,928.67
2017-05-11T03:21:14.703Z,928.65
2017-05-11T03:21:43.036Z,928.68
2017-05-11T03:22:11.492Z,928.63
2017-05-11T03:22:39.897Z,928.65
2017-05-11T03:23:08.220Z,928.63
2017-05-11T03:23:36.581Z,928.63
2017-05-11T03:24:47.969Z,928.69
2017-05-11T03:25:16.366Z,928.62
2017-05-11T03:25:44.639Z,928.63
2017-05-11T03:26:12.873Z,928.63
2017-05-11T03:26:41.050Z,928.64
2017-05-11T03:27:09.336Z,928.63
2017-05-11T03:27:37.583Z,928.62
2017-05-11T03:28:06.041Z,928.67
2017-05-11T03:28:34.446Z,928.64
2017-05-11T03:29:02.679Z,928.63
2017-05-11T03:29:31.039Z,928.62
2017-05-11T03:30:42.431Z,928.61
2017-05-11T03:31:10.741Z,928.59
2017-05-11T03:31:38.917Z,928.6
2017-05-11T03:32:07.069Z,928.57
2017-05-11T03:32:35.435Z,928.55
2017-05-11T03:33:03.735Z,928.58
2017-05-11T03:33:31.983Z,928.55
2017-05-11T03:34:00.443Z,928.57
2017-05-11T03:34:28.759Z,928.57
2017-05-11T03:34:57.082Z,928.57
2017-05-11T03:35:25.350Z,928.59
2017-05-11T03:36:36.824Z,928.56
2017-05-11T03:37:05.225Z,928.6
2017-05-11T03:37:33.588Z,928.59
2017-05-11T03:38:01.925Z,928.58
2017-05-11T03:38:30.107Z,928.57
2017-05-11T03:38:58.490Z,928.58
2017-05-11T03:39:26.822Z,928.6
2017-05-11T03:39:55.282Z,928.59
2017-05-11T03:40:23.681Z,928.6
2017-05-11T03:40:52.003Z,928.59
2017-05-11T03:41:20.180Z,928.6
2017-05-11T03:42:31.664Z,928.62
2017-05-11T03:43:00.062Z,928.59
2017-05-11T03:43:28.138Z,928.58
2017-05-11T03:43:56.381Z,928.56
2017-05-11T03:44:24.657Z,928.55
2017-05-11T03:44:52.953Z,928.55
2017-05-11T03:45:21.289Z,928.57
2017-05-11T03:45:49.744Z,928.54
2017-05-11T03:46:18.152Z,928.52
2017-05-11T03:46:46.481Z,928.49
2017-05-11T03:47:14.838Z,928.5
2017-05-11T03:48:26.227Z,928.49
2017-05-11T03:48:54.626Z,928.45
2017-05-11T03:49:22.798Z,928.46
2017-05-11T03:49:51.136Z,928.46
2017-05-11T03:50:19.502Z,928.42
2017-05-11T03:50:47.801Z,928.46
2017-05-11T03:51:16.135Z,928.45
2017-05-11T03:51:44.595Z,928.45
2017-05-11T03:52:13.003Z,928.46
2017-05-11T03:52:41.335Z,928.42
2017-05-11T03:53:09.515Z,928.41
2017-05-11T03:54:20.994Z,928.4
2017-05-11T03:54:49.392Z,928.41
2017-05-11T03:55:17.664Z,928.42
2017-05-11T03:55:45.999Z,928.41
2017-05-11T03:56:14.368Z,928.43
2017-05-11T03:56:42.569Z,928.44
2017-05-11T03:57:10.905Z,928.4
2017-05-11T03:57:39.364Z,928.4
2017-05-11T03:58:07.673Z,928.41
2017-05-11T03:58:35.995Z,928.4
2017-05-11T03:59:04.174Z,928.43
2017-05-11T04:00:15.562Z,928.39
2017-05-11T04:00:43.875Z,928.4
2017-05-11T04:01:12.150Z,928.37
2017-05-11T04:01:40.394Z,928.4
2017-05-11T04:02:08.758Z,928.35
2017-05-11T04:02:37.132Z,928.41
2017-05-11T04:03:05.474Z,928.4
2017-05-11T04:03:33.930Z,928.35
2017-05-11T04:04:02.334Z,928.39
2017-05-11T04:04:30.569Z,928.38
2017-05-11T04:04:58.932Z,928.35
2017-05-11T04:06:10.415Z,928.37
2017-05-11T04:06:38.814Z,928.37
2017-05-11T04:07:06.892Z,928.39
2017-05-11T04:07:35.223Z,928.34
2017-05-11T04:08:03.590Z,928.39
2017-05-11T04:08:31.890Z,928.36
2017-05-11T04:09:00.231Z,928.4
2017-05-11T04:09:28.696Z,928.38
2017-05-11T04:09:57.103Z,928.42
2017-05-11T04:10:25.426Z,928.36
2017-05-11T04:10:53.784Z,928.37
2017-05-11T04:12:05.079Z,928.41
2017-05-11T04:12:33.292Z,928.41
2017-05-11T04:13:01.655Z,928.38
2017-05-11T04:13:29.896Z,928.39
2017-05-11T04:13:58.077Z,928.38
2017-05-11T04:14:26.371Z,928.42
2017-05-11T04:14:54.615Z,928.39
2017-05-11T04:15:23.076Z,928.41
2017-05-11T04:15:51.483Z,928.4
2017-05-11T04:16:19.805Z,928.41
2017-05-11T04:16:48.170Z,928.39
2017-05-11T04:17:59.648Z,928.38
2017-05-11T04:18:27.954Z,928.4
2017-05-11T04:18:56.309Z,928.38
2017-05-11T04:19:24.550Z,928.38
2017-05-11T04:19:52.920Z,928.37
2017-05-11T04:20:21.217Z,928.36
2017-05-11T04:20:49.555Z,928.35
2017-05-11T04:21:18.012Z,928.35
2017-05-11T04:21:46.323Z,928.37
2017-05-11T04:22:14.644Z,928.36
2017-05-11T04:22:42.914Z,928.39
2017-05-11T04:23:54.399Z,928.33
2017-05-11T04:24:22.798Z,928.35
2017-05-11T04:24:50.979Z,928.38
2017-05-11T04:25:19.318Z,928.36
2017-05-11T04:25:47.690Z,928.35
2017-05-11T04:26:15.888Z,928.4
2017-05-11T04:26:44.129Z,928.42
2017-05-11T04:27:12.595Z,928.38
2017-05-11T04:27:40.905Z,928.43
2017-05-11T04:28:09.133Z,928.47
2017-05-11T04:28:37.492Z,928.4
2017-05-11T04:29:48.966Z,928.41
2017-05-11T04:30:17.355Z,928.41
2017-05-11T04:30:45.533Z,928.41
2017-05-11T04:31:13.865Z,928.4
2017-05-11T04:31:42.138Z,928.41
2017-05-11T04:32:10.533Z,928.38
2017-05-11T04:32:38.774Z,928.39
2017-05-11T04:33:07.248Z,928.35
2017-05-11T04:33:35.642Z,928.36
2017-05-11T04:34:04.016Z,928.36
2017-05-11T04:34:32.334Z,928.38
2017-05-11T04:35:43.815Z,928.36
2017-05-11T04:36:12.118Z,928.3
2017-05-11T04:36:40.474Z,928.31
2017-05-11T04:37:08.717Z,928.3
2017-05-11T04:37:36.992Z,928.31
2017-05-11T04:38:05.382Z,928.27
2017-05-11T04:38:33.622Z,928.28
2017-05-11T04:39:02.084Z,928.24
2017-05-11T04:39:30.397Z,928.24
2017-05-11T04:39:58.730Z,928.27
2017-05-11T04:40:26.998Z,928.26
2017-05-11T04:41:38.475Z,928.24
2017-05-11T04:42:06.865Z,928.25
2017-05-11T04:42:35.225Z,928.24
2017-05-11T04:43:03.464Z,928.19
2017-05-11T04:43:31.834Z,928.26
2017-05-11T04:44:00.222Z,928.23
2017-05-11T04:44:28.558Z,928.24
2017-05-11T04:44:56.924Z,928.2
2017-05-11T04:45:25.328Z,928.21
2017-05-11T04:45:53.560Z,928.22
2017-05-11T04:46:21.918Z,928.21
2017-05-11T04:47:33.398Z,928.24
2017-05-11T04:48:01.789Z,928.22
2017-05-11T04:48:29.968Z,928.23
2017-05-11T04:48:58.208Z,928.18
2017-05-11T04:49:26.485Z,928.24
2017-05-11T04:49:54.780Z,928.19
2017-05-11T04:50:23.030Z,928.19
2017-05-11T04:50:51.491Z,928.21
2017-05-11T04:51:19.803Z,928.18
2017-05-11T04:51:48.131Z,928.15
2017-05-11T04:52:16.399Z,928.18
2017-05-11T04:53:27.881Z,928.17
2017-05-11T04:53:56.283Z,928.15
2017-05-11T04:54:24.546Z,928.18
2017-05-11T04:54:52.879Z,928.14
2017-05-11T04:55:21.245Z,928.16
2017-05-11T04:55:49.627Z,928.15
2017-05-11T04:56:17.869Z,928.18
2017-05-11T04:56:46.330Z,928.18
2017-05-11T04:57:14.729Z,928.14
2017-05-11T04:57:42.963Z,928.14
2017-05-11T04:58:11.324Z,928.11
2017-05-11T04:59:22.805Z,928.12
2017-05-11T04:59:51.206Z,928.15
2017-05-11T05:00:19.477Z,928.14
2017-05-11T05:00:47.816Z,928.16
2017-05-11T05:01:16.188Z,928.13
2017-05-11T05:01:44.571Z,928.15
2017-05-11T05:02:12.905Z,928.12
2017-05-11T05:02:41.374Z,928.12
2017-05-11T05:03:09.687Z,928.14
2017-05-11T05:03:37.927Z,928.17
2017-05-11T05:04:06.278Z,928.15
2017-05-11T05:05:17.666Z,928.16
2017-05-11T05:05:46.060Z,928.15
2017-05-11T05:06:14.324Z,928.2
2017-05-11T05:06:42.477Z,928.1
2017-05-11T05:07:10.750Z,928.11
2017-05-11T05:07:39.144Z,928.12
2017-05-11T05:08:07.384Z,928.12
2017-05-11T05:08:35.844Z,928.14
2017-05-11T05:09:04.250Z,928.13
2017-05-11T05:09:32.580Z,928.15
2017-05-11T05:10:00.942Z,928.13
2017-05-11T05:11:12.422Z,928.11
2017-05-11T05:11:40.815Z,928.09
2017-05-11T05:12:09.077Z,928.1
2017-05-11T05:12:37.409Z,928.12
2017-05-11T05:13:05.689Z,928.05
2017-05-11T05:13:34.078Z,928.06
2017-05-11T05:14:02.321Z,928.08
2017-05-11T05:14:30.788Z,928.03
2017-05-11T05:14:59.196Z,928.07
2017-05-11T05:15:27.428Z,928.02
2017-05-11T05:15:55.600Z,928.02
2017-05-11T05:17:06.925Z,928.03
2017-05-11T05:17:35.233Z,928
2017-05-11T05:18:03.594Z,928
2017-05-11T05:18:31.838Z,927.96
2017-05-11T05:19:00.204Z,928.03
2017-05-11T05:19:28.594Z,928.01
2017-05-11T05:19:56.832Z,928.01
2017-05-11T05:20:25.293Z,928.05
2017-05-11T05:20:53.694Z,928.08
2017-05-11T05:21:21.928Z,928.05
2017-05-11T05:21:50.288Z,928.04
2017-05-11T05:23:01.676Z,928.04
2017-05-11T05:23:30.068Z,928.07
2017-05-11T05:23:58.421Z,928.04
2017-05-11T05:24:26.754Z,928.08
2017-05-11T05:24:54.931Z,928.06
2017-05-11T05:25:23.319Z,928.02
2017-05-11T05:25:51.653Z,928.07
2017-05-11T05:26:20.105Z,928.06
2017-05-11T05:26:48.517Z,928.07
2017-05-11T05:27:16.836Z,928.12
2017-05-11T05:27:45.098Z,928.09
2017-05-11T05:28:56.390Z,928.07
2017-05-11T05:29:24.789Z,928.03
2017-05-11T05:29:53.142Z,928.03
2017-05-11T05:30:21.479Z,928.05
2017-05-11T05:30:49.847Z,928.07
2017-05-11T05:31:18.243Z,928.05
2017-05-11T05:31:46.487Z,928.02
2017-05-11T05:32:14.853Z,928.04
2017-05-11T05:32:43.160Z,928.05
2017-05-11T05:33:11.401Z,928.04
2017-05-11T05:33:39.758Z,928.03
2017-05-11T05:34:51.146Z,928.01
2017-05-11T05:35:19.540Z,928.08
2017-05-11T05:35:47.708Z,928.07
2017-05-11T05:36:16.043Z,928.07
2017-05-11T05:36:44.315Z,928.03
2017-05-11T05:37:12.700Z,928.05
2017-05-11T05:37:41.030Z,928.02
2017-05-11T05:38:09.489Z,928.05
2017-05-11T05:38:37.895Z,928.06
2017-05-11T05:39:06.120Z,928.04
2017-05-11T05:39:34.482Z,928.07
2017-05-11T05:40:45.782Z,928.05
2017-05-11T05:41:14.183Z,928.07
2017-05-11T05:41:42.534Z,928.02
2017-05-11T05:42:10.865Z,928.02
2017-05-11T05:42:39.156Z,928.06
2017-05-11T05:43:07.460Z,928.01
2017-05-11T05:43:35.785Z,927.97
2017-05-11T05:44:04.247Z,928
2017-05-11T05:44:32.562Z,928
2017-05-11T05:45:00.694Z,927.97
2017-05-11T05:45:29.058Z,927.96
2017-05-11T05:46:40.443Z,927.93
2017-05-11T05:47:08.840Z,927.93
2017-05-11T05:47:37.215Z,927.96
2017-05-11T05:48:05.465Z,927.87
2017-05-11T05:48:33.830Z,927.92
2017-05-11T05:49:02.220Z,927.91
2017-05-11T05:49:30.553Z,927.87
2017-05-11T05:49:59.019Z,927.89
2017-05-11T05:50:27.237Z,927.9
2017-05-11T05:50:55.560Z,927.88
2017-05-11T05:51:23.826Z,927.88
2017-05-11T05:52:35.305Z,927.91
2017-05-11T05:53:03.613Z,927.88
2017-05-11T05:53:31.964Z,927.86
2017-05-11T05:54:00.205Z,927.87
2017-05-11T05:54:28.574Z,927.84
2017-05-11T05:54:56.868Z,927.85
2017-05-11T05:55:25.211Z,927.85
2017-05-11T05:55:53.580Z,927.84
2017-05-11T05:56:21.980Z,927.85
2017-05-11T05:56:50.209Z,927.83
2017-05-11T05:57:18.562Z,927.84
2017-05-11T05:58:30.040Z,927.83
2017-05-11T05:58:58.437Z,927.77
2017-05-11T05:59:26.803Z,927.81
2017-05-11T05:59:55.143Z,927.78
2017-05-11T06:00:23.416Z,927.82
2017-05-11T06:00:51.800Z,927.81
2017-05-11T06:01:20.046Z,927.81
2017-05-11T06:01:48.504Z,927.79
2017-05-11T06:02:16.909Z,927.79
2017-05-11T06:02:45.229Z,927.8
2017-05-11T06:03:13.498Z,927.78
2017-05-11T06:04:24.978Z,927.77
2017-05-11T06:04:53.370Z,927.77
2017-05-11T06:05:21.722Z,927.75
2017-05-11T06:05:49.963Z,927.76
2017-05-11T06:06:18.329Z,927.73
2017-05-11T06:06:46.715Z,927.78
2017-05-11T06:07:15.053Z,927.76
2017-05-11T06:07:43.453Z,927.74
2017-05-11T06:08:11.823Z,927.73
2017-05-11T06:08:40.057Z,927.74
2017-05-11T06:09:08.411Z,927.72
2017-05-11T06:10:19.888Z,927.7
2017-05-11T06:10:48.287Z,927.72
2017-05-11T06:11:16.651Z,927.68
2017-05-11T06:11:44.890Z,927.67
2017-05-11T06:12:13.162Z,927.7
2017-05-11T06:12:41.553Z,927.73
2017-05-11T06:13:09.886Z,927.72
2017-05-11T06:13:38.256Z,927.73
2017-05-11T06:14:06.662Z,927.7
2017-05-11T06:14:34.990Z,927.75
2017-05-11T06:15:03.258Z,927.75
2017-05-11T06:16:14.550Z,927.75
2017-05-11T06:16:42.946Z,927.74
2017-05-11T06:17:11.299Z,927.76
2017-05-11T06:17:39.541Z,927.76
2017-05-11T06:18:07.813Z,927.74
2017-05-11T06:18:36.201Z,927.71
2017-05-11T06:19:04.534Z,927.74
2017-05-11T06:19:32.904Z,927.72
2017-05-11T06:20:01.302Z,927.73
2017-05-11T06:20:29.623Z,927.74
2017-05-11T06:20:57.889Z,927.75
2017-05-11T06:22:09.367Z,927.75
2017-05-11T06:22:37.758Z,927.73
2017-05-11T06:23:06.108Z,927.71
2017-05-11T06:23:34.435Z,927.72
2017-05-11T06:24:02.804Z,927.72
2017-05-11T06:24:31.195Z,927.7
2017-05-11T06:24:59.530Z,927.72
2017-05-11T06:25:27.993Z,927.69
2017-05-11T06:25:56.298Z,927.71
2017-05-11T06:26:24.619Z,927.71
2017-05-11T06:26:52.973Z,927.71
2017-05-11T06:28:04.451Z,927.71
2017-05-11T06:28:32.848Z,927.7
2017-05-11T06:29:01.115Z,927.71
2017-05-11T06:29:29.352Z,927.69
2017-05-11T06:29:57.714Z,927.71
2017-05-11T06:30:26.016Z,927.68
2017-05-11T06:30:54.346Z,927.68
2017-05-11T06:31:22.807Z,927.68
2017-05-11T06:31:51.020Z,927.68
2017-05-11T06:32:19.251Z,927.68
2017-05-11T06:32:47.517Z,927.7
2017-05-11T06:33:58.903Z,927.69
2017-05-11T06:34:27.290Z,927.68
2017-05-11T06:34:55.642Z,927.67
2017-05-11T06:35:23.883Z,927.63
2017-05-11T06:35:52.155Z,927.67
2017-05-11T06:36:20.539Z,927.7
2017-05-11T06:36:48.788Z,927.67
2017-05-11T06:37:17.243Z,927.68
2017-05-11T06:37:45.549Z,927.68
2017-05-11T06:38:13.871Z,927.63
2017-05-11T06:38:42.138Z,927.65
2017-05-11T06:39:53.611Z,927.65
2017-05-11T06:40:22.008Z,927.65
2017-05-11T06:40:50.359Z,927.69
2017-05-11T06:41:18.598Z,927.67
2017-05-11T06:41:46.784Z,927.68
2017-05-11T06:42:14.978Z,927.67
2017-05-11T06:42:43.310Z,927.66
2017-05-11T06:43:11.679Z,927.64
2017-05-11T06:43:39.996Z,927.64